createdAt,value
2018-03-30T00:00:45.776Z,-0.86
2018-03-30T00:01:45.762Z,-0.82
2018-03-30T00:02:45.710Z,-0.80
2018-03-30T00:03:45.663Z,-0.83
2018-03-30T00:04:45.661Z,-0.83
2018-03-30T00:05:45.611Z,-0.82
2018-03-30T00:06:45.583Z,-0.85
2018-03-30T00:07:45.604Z,-0.78
2018-03-30T00:08:45.579Z,-0.90
2018-03-30T00:09:45.515Z,-0.65
2018-03-30T00:10:45.505Z,-0.78
2018-03-30T00:11:45.478Z,-0.74
2018-03-30T00:12:45.466Z,-0.74
2018-03-30T00:13:45.428Z,-0.68
2018-03-30T00:14:45.433Z,-0.82
2018-03-30T00:15:45.397Z,-0.72
2018-03-30T00:16:45.346Z,-0.83
2018-03-30T00:17:45.360Z,-0.78
2018-03-30T00:18:45.315Z,-0.83
2018-03-30T00:19:45.298Z,-0.89
2018-03-30T00:20:45.271Z,-0.90
2018-03-30T00:21:45.211Z,-0.90
2018-03-30T00:22:45.212Z,-0.83
2018-03-30T00:23:45.198Z,-0.85
2018-03-30T00:24:45.182Z,-0.96
2018-03-30T00:25:45.135Z,-0.91
2018-03-30T00:26:45.088Z,-1.01
2018-03-30T00:27:45.096Z,-0.94
2018-03-30T00:28:45.054Z,-1.02
2018-03-30T00:29:45.056Z,-0.96
2018-03-30T00:30:44.994Z,-1.09
2018-03-30T00:31:44.996Z,-1.07
2018-03-30T00:32:44.977Z,-1.02
2018-03-30T00:33:44.942Z,-1.07
2018-03-30T00:34:44.937Z,-1.09
2018-03-30T00:35:44.926Z,-1.08
2018-03-30T00:36:44.849Z,-1.11
2018-03-30T00:37:44.840Z,-1.07
2018-03-30T00:38:44.826Z,-1.07
2018-03-30T00:39:44.780Z,-1.11
2018-03-30T00:40:44.783Z,-1.08
2018-03-30T00:41:44.722Z,-1.07
2018-03-30T00:42:44.743Z,-1.09
2018-03-30T00:43:44.670Z,-1.12
2018-03-30T00:44:44.677Z,-1.14
2018-03-30T00:45:44.638Z,-1.09
2018-03-30T00:46:44.602Z,-1.09
2018-03-30T00:47:44.581Z,-1.11
2018-03-30T00:48:44.575Z,-1.14
2018-03-30T00:49:44.522Z,-1.17
2018-03-30T00:50:44.535Z,-1.11
2018-03-30T00:51:44.476Z,-1.14
2018-03-30T00:52:44.451Z,-1.14
2018-03-30T00:53:44.435Z,-1.15
2018-03-30T00:54:44.403Z,-1.22
2018-03-30T00:55:44.375Z,-1.26
2018-03-30T00:56:44.354Z,-1.32
2018-03-30T00:57:44.330Z,-1.33
2018-03-30T00:58:44.318Z,-1.29
2018-03-30T00:59:44.287Z,-1.29
2018-03-30T01:00:44.263Z,-1.25
2018-03-30T01:01:44.254Z,-1.26
2018-03-30T01:02:44.200Z,-1.17
2018-03-30T01:03:44.175Z,-1.12
2018-03-30T01:04:44.154Z,-1.17
2018-03-30T01:05:44.138Z,-1.20
2018-03-30T01:06:44.106Z,-1.17
2018-03-30T01:07:44.115Z,-1.23
2018-03-30T01:08:44.056Z,-1.25
2018-03-30T01:09:44.018Z,-1.25
2018-03-30T01:10:44.013Z,-1.23
2018-03-30T01:11:43.994Z,-1.29
2018-03-30T01:12:43.973Z,-1.17
2018-03-30T01:13:43.973Z,-1.23
2018-03-30T01:14:43.914Z,-1.15
2018-03-30T01:15:43.920Z,-1.27
2018-03-30T01:16:43.871Z,-1.14
2018-03-30T01:17:43.828Z,-1.17
2018-03-30T01:18:43.848Z,-1.17
2018-03-30T01:19:43.787Z,-1.12
2018-03-30T01:20:43.774Z,-1.15
2018-03-30T01:21:43.729Z,-1.08
2018-03-30T01:22:43.706Z,-1.11
2018-03-30T01:23:43.691Z,-1.15
2018-03-30T01:24:43.655Z,-1.15
2018-03-30T01:25:43.628Z,-1.19
2018-03-30T01:26:43.620Z,-1.09
2018-03-30T01:27:43.603Z,-1.11
2018-03-30T01:28:43.571Z,-1.08
2018-03-30T01:29:43.541Z,-1.14
2018-03-30T01:30:43.518Z,-1.08
2018-03-30T01:31:43.487Z,-1.09
2018-03-30T01:32:43.454Z,-1.01
2018-03-30T01:33:43.444Z,-1.09
2018-03-30T01:34:43.451Z,-1.05
2018-03-30T01:35:43.391Z,-1.07
2018-03-30T01:36:43.386Z,-0.99
2018-03-30T01:37:43.332Z,-1.05
2018-03-30T01:38:43.312Z,-0.99
2018-03-30T01:39:43.316Z,-1.02
2018-03-30T01:40:43.282Z,-1.05
2018-03-30T01:41:43.277Z,-0.97
2018-03-30T01:42:43.197Z,-1.07
2018-03-30T01:43:43.197Z,-1.02
2018-03-30T01:44:43.176Z,-0.96
2018-03-30T01:45:43.131Z,-0.99
2018-03-30T01:46:43.101Z,-0.94
2018-03-30T01:47:43.085Z,-0.93
2018-03-30T01:48:43.077Z,-0.99
2018-03-30T01:49:43.017Z,-1.02
2018-03-30T01:50:43.008Z,-1.05
2018-03-30T01:51:42.975Z,-0.93
2018-03-30T01:52:42.948Z,-0.93
2018-03-30T01:53:42.926Z,-0.97
2018-03-30T01:54:42.925Z,-0.94
2018-03-30T01:55:42.883Z,-0.96
2018-03-30T01:56:42.870Z,-0.93
2018-03-30T01:57:42.845Z,-0.94
2018-03-30T01:58:42.859Z,-0.83
2018-03-30T01:59:42.820Z,-0.83
2018-03-30T02:00:42.771Z,-0.83
2018-03-30T02:01:42.720Z,-0.89
2018-03-30T02:02:42.702Z,-0.78
2018-03-30T02:03:42.694Z,-0.83
2018-03-30T02:04:42.669Z,-0.82
2018-03-30T02:05:44.192Z,-0.83
2018-03-30T02:06:42.606Z,-0.72
2018-03-30T02:07:42.586Z,-0.77
2018-03-30T02:08:42.634Z,-0.72
2018-03-30T02:09:42.571Z,-0.72
2018-03-30T02:10:42.535Z,-0.74
2018-03-30T02:11:42.488Z,-0.68
2018-03-30T02:12:42.464Z,-0.71
2018-03-30T02:13:42.447Z,-0.71
2018-03-30T02:14:42.433Z,-0.71
2018-03-30T02:15:42.394Z,-0.74
2018-03-30T02:16:42.347Z,-0.70
2018-03-30T02:17:42.365Z,-0.72
2018-03-30T02:18:42.306Z,-0.75
2018-03-30T02:19:42.286Z,-0.80
2018-03-30T02:20:42.267Z,-0.82
2018-03-30T02:21:42.271Z,-0.83
2018-03-30T02:22:42.239Z,-0.89
2018-03-30T02:23:42.215Z,-0.86
2018-03-30T02:24:42.191Z,-0.86
2018-03-30T02:25:42.153Z,-0.90
2018-03-30T02:26:42.155Z,-0.83
2018-03-30T02:27:42.130Z,-0.83
2018-03-30T02:28:42.100Z,-0.80
2018-03-30T02:29:42.050Z,-0.89
2018-03-30T02:30:42.016Z,-0.91
2018-03-30T02:31:41.995Z,-0.91
2018-03-30T02:32:41.976Z,-0.90
2018-03-30T02:33:41.968Z,-0.82
2018-03-30T02:34:41.921Z,-0.94
2018-03-30T02:35:41.893Z,-0.86
2018-03-30T02:36:41.863Z,-1.01
2018-03-30T02:37:41.847Z,-0.90
2018-03-30T02:38:41.840Z,-1.01
2018-03-30T02:39:41.793Z,-0.90
2018-03-30T02:40:41.762Z,-0.93
2018-03-30T02:41:41.770Z,-0.89
2018-03-30T02:42:41.732Z,-0.89
2018-03-30T02:43:41.681Z,-0.89
2018-03-30T02:44:41.677Z,-0.89
2018-03-30T02:45:41.647Z,-0.83
2018-03-30T02:46:41.654Z,-0.85
2018-03-30T02:47:41.580Z,-0.89
2018-03-30T02:48:41.616Z,-0.86
2018-03-30T02:49:41.564Z,-0.91
2018-03-30T02:50:41.510Z,-0.85
2018-03-30T02:51:41.488Z,-0.82
2018-03-30T02:52:41.478Z,-0.83
2018-03-30T02:53:41.446Z,-0.91
2018-03-30T02:54:41.493Z,-0.82
2018-03-30T02:55:41.404Z,-0.86
2018-03-30T02:56:41.370Z,-0.90
2018-03-30T02:57:41.378Z,-0.91
2018-03-30T02:58:41.304Z,-0.96
2018-03-30T02:59:41.323Z,-1.04
2018-03-30T03:00:41.271Z,-1.01
2018-03-30T03:01:41.247Z,-1.02
2018-03-30T03:02:41.224Z,-0.97
2018-03-30T03:03:41.192Z,-0.96
2018-03-30T03:04:41.170Z,-1.02
2018-03-30T03:05:41.175Z,-0.93
2018-03-30T03:06:41.109Z,-0.93
2018-03-30T03:07:41.146Z,-0.97
2018-03-30T03:08:41.105Z,-0.93
2018-03-30T03:09:41.039Z,-0.90
2018-03-30T03:10:41.036Z,-0.86
2018-03-30T03:11:41.001Z,-0.96
2018-03-30T03:12:40.988Z,-0.94
2018-03-30T03:13:40.945Z,-0.93
2018-03-30T03:14:40.970Z,-0.93
2018-03-30T03:15:40.907Z,-0.96
2018-03-30T03:16:40.858Z,-0.89
2018-03-30T03:17:40.843Z,-0.90
2018-03-30T03:18:40.822Z,-0.90
2018-03-30T03:19:40.809Z,-0.91
2018-03-30T03:20:40.784Z,-0.82
2018-03-30T03:21:40.757Z,-0.86
2018-03-30T03:22:40.757Z,-0.86
2018-03-30T03:23:40.743Z,-0.89
2018-03-30T03:24:40.667Z,-0.85
2018-03-30T03:25:40.659Z,-0.85
2018-03-30T03:26:40.614Z,-0.93
2018-03-30T03:27:40.594Z,-0.83
2018-03-30T03:28:40.608Z,-0.91
2018-03-30T03:29:40.542Z,-0.96
2018-03-30T03:30:40.512Z,-0.85
2018-03-30T03:31:40.514Z,-0.89
2018-03-30T03:32:40.500Z,-1.02
2018-03-30T03:33:40.481Z,-0.96
2018-03-30T03:34:40.420Z,-0.97
2018-03-30T03:35:40.425Z,-0.97
2018-03-30T03:36:40.364Z,-1.09
2018-03-30T03:37:40.434Z,-1.09
2018-03-30T03:38:40.327Z,-1.05
2018-03-30T03:39:40.285Z,-1.05
2018-03-30T03:40:40.260Z,-1.08
2018-03-30T03:41:40.270Z,-1.15
2018-03-30T03:42:40.237Z,-1.25
2018-03-30T03:43:40.197Z,-1.23
2018-03-30T03:44:40.157Z,-1.12
2018-03-30T03:45:40.160Z,-1.33
2018-03-30T03:46:40.134Z,-1.26
2018-03-30T03:47:40.134Z,-1.27
2018-03-30T03:48:40.063Z,-1.41
2018-03-30T03:49:40.171Z,-1.32
2018-03-30T03:50:40.046Z,-1.37
2018-03-30T03:51:39.996Z,-1.35
2018-03-30T03:52:39.962Z,-1.35
2018-03-30T03:53:39.971Z,-1.38
2018-03-30T03:54:39.911Z,-1.40
2018-03-30T03:55:39.915Z,-1.38
2018-03-30T03:56:39.922Z,-1.44
2018-03-30T03:57:39.831Z,-1.38
2018-03-30T03:58:39.814Z,-1.35
2018-03-30T03:59:39.783Z,-1.38
2018-03-30T04:00:39.777Z,-1.38
2018-03-30T04:01:39.747Z,-1.41
2018-03-30T04:02:39.708Z,-1.35
2018-03-30T04:03:39.699Z,-1.43
2018-03-30T04:04:39.655Z,-1.35
2018-03-30T04:05:39.646Z,-1.38
2018-03-30T04:06:39.627Z,-1.40
2018-03-30T04:07:39.600Z,-1.40
2018-03-30T04:08:39.588Z,-1.35
2018-03-30T04:09:39.558Z,-1.37
2018-03-30T04:10:39.514Z,-1.41
2018-03-30T04:11:39.490Z,-1.40
2018-03-30T04:12:39.482Z,-1.47
2018-03-30T04:13:39.447Z,-1.53
2018-03-30T04:14:39.443Z,-1.59
2018-03-30T04:15:39.400Z,-1.56
2018-03-30T04:16:39.392Z,-1.62
2018-03-30T04:17:39.341Z,-1.53
2018-03-30T04:18:39.354Z,-1.53
2018-03-30T04:19:39.296Z,-1.51
2018-03-30T04:20:39.312Z,-1.47
2018-03-30T04:21:39.258Z,-1.53
2018-03-30T04:22:39.247Z,-1.56
2018-03-30T04:23:39.194Z,-1.54
2018-03-30T04:24:39.173Z,-1.61
2018-03-30T04:25:39.144Z,-1.50
2018-03-30T04:26:39.119Z,-1.51
2018-03-30T04:27:39.100Z,-1.47
2018-03-30T04:28:39.107Z,-1.53
2018-03-30T04:29:39.079Z,-1.47
2018-03-30T04:30:39.728Z,-1.54
2018-03-30T04:31:38.992Z,-1.56
2018-03-30T04:32:38.976Z,-1.56
2018-03-30T04:33:38.958Z,-1.58
2018-03-30T04:34:38.903Z,-1.58
2018-03-30T04:35:38.938Z,-1.64
2018-03-30T04:36:38.925Z,-1.65
2018-03-30T04:37:38.871Z,-1.65
2018-03-30T04:38:38.840Z,-1.66
2018-03-30T04:39:38.779Z,-1.66
2018-03-30T04:40:38.786Z,-1.79
2018-03-30T04:41:38.732Z,-1.65
2018-03-30T04:42:38.718Z,-1.74
2018-03-30T04:43:38.694Z,-1.66
2018-03-30T04:44:38.693Z,-1.66
2018-03-30T04:45:38.665Z,-1.74
2018-03-30T04:46:38.624Z,-1.66
2018-03-30T04:47:39.258Z,-1.69
2018-03-30T04:48:38.595Z,-1.72
2018-03-30T04:49:38.540Z,-1.74
2018-03-30T04:50:38.533Z,-1.76
2018-03-30T04:51:38.477Z,-1.80
2018-03-30T04:52:38.473Z,-1.72
2018-03-30T04:53:38.430Z,-1.80
2018-03-30T04:54:38.420Z,-1.76
2018-03-30T04:55:38.392Z,-1.74
2018-03-30T04:56:38.361Z,-1.74
2018-03-30T04:57:38.356Z,-1.77
2018-03-30T04:58:38.344Z,-1.87
2018-03-30T04:59:38.290Z,-1.80
2018-03-30T05:00:38.306Z,-1.74
2018-03-30T05:01:38.261Z,-1.84
2018-03-30T05:02:38.231Z,-1.87
2018-03-30T05:03:38.177Z,-1.87
2018-03-30T05:04:38.154Z,-1.83
2018-03-30T05:05:38.146Z,-1.79
2018-03-30T05:06:38.115Z,-1.82
2018-03-30T05:07:38.083Z,-1.76
2018-03-30T05:08:38.068Z,-1.79
2018-03-30T05:09:38.028Z,-1.82
2018-03-30T05:10:38.010Z,-1.79
2018-03-30T05:11:37.982Z,-1.77
2018-03-30T05:12:37.961Z,-1.86
2018-03-30T05:13:37.927Z,-1.84
2018-03-30T05:14:37.952Z,-1.86
2018-03-30T05:15:37.879Z,-1.86
2018-03-30T05:16:37.861Z,-1.84
2018-03-30T05:17:37.844Z,-1.79
2018-03-30T05:18:37.812Z,-1.72
2018-03-30T05:19:37.789Z,-1.80
2018-03-30T05:20:37.769Z,-1.64
2018-03-30T05:21:37.736Z,-1.66
2018-03-30T05:22:37.715Z,-1.66
2018-03-30T05:23:37.698Z,-1.51
2018-03-30T05:24:37.672Z,-1.59
2018-03-30T05:25:37.686Z,-1.58
2018-03-30T05:26:37.875Z,-1.51
2018-03-30T05:27:37.582Z,-1.50
2018-03-30T05:28:37.566Z,-1.53
2018-03-30T05:29:37.548Z,-1.54
2018-03-30T05:30:37.492Z,-1.56
2018-03-30T05:31:37.475Z,-1.51
2018-03-30T05:32:37.460Z,-1.51
2018-03-30T05:33:37.422Z,-1.50
2018-03-30T05:34:37.420Z,-1.51
2018-03-30T05:35:37.390Z,-1.50
2018-03-30T05:36:37.353Z,-1.44
2018-03-30T05:37:37.336Z,-1.41
2018-03-30T05:38:37.327Z,-1.37
2018-03-30T05:39:37.280Z,-1.38
2018-03-30T05:40:37.283Z,-1.35
2018-03-30T05:41:37.244Z,-1.26
2018-03-30T05:42:37.223Z,-1.22
2018-03-30T05:43:37.176Z,-1.26
2018-03-30T05:44:37.136Z,-1.17
2018-03-30T05:45:37.177Z,-1.19
2018-03-30T05:46:37.097Z,-1.11
2018-03-30T05:47:37.073Z,-1.11
2018-03-30T05:48:37.052Z,-1.11
2018-03-30T05:49:37.067Z,-1.01
2018-03-30T05:50:37.006Z,-0.96
2018-03-30T05:51:37.000Z,-0.97
2018-03-30T05:52:36.973Z,-0.97
2018-03-30T05:53:36.908Z,-0.85
2018-03-30T05:54:37.718Z,-0.86
2018-03-30T05:55:36.888Z,-0.85
2018-03-30T05:56:36.849Z,-0.77
2018-03-30T05:57:36.835Z,-0.74
2018-03-30T05:58:36.832Z,-0.68
2018-03-30T05:59:36.793Z,-0.59
2018-03-30T06:00:36.749Z,-0.47
2018-03-30T06:01:36.711Z,-0.53
2018-03-30T06:02:36.691Z,-0.47
2018-03-30T06:03:36.686Z,-0.36
2018-03-30T06:04:36.684Z,-0.34
2018-03-30T06:05:36.619Z,-0.26
2018-03-30T06:06:36.591Z,-0.13
2018-03-30T06:07:36.664Z,-0.03
2018-03-30T06:08:36.541Z,0.01
2018-03-30T06:09:36.557Z,0.16
2018-03-30T06:10:36.536Z,0.21
2018-03-30T06:11:36.506Z,0.31
2018-03-30T06:12:36.476Z,0.43
2018-03-30T06:13:36.447Z,0.55
2018-03-30T06:14:36.394Z,0.62
2018-03-30T06:15:36.389Z,0.68
2018-03-30T06:16:36.413Z,0.78
2018-03-30T06:17:36.334Z,0.91
2018-03-30T06:18:36.314Z,0.99
2018-03-30T06:19:36.287Z,1.06
2018-03-30T06:20:36.286Z,1.08
2018-03-30T06:21:36.360Z,1.20
2018-03-30T06:22:36.213Z,1.30
2018-03-30T06:23:36.214Z,1.32
2018-03-30T06:24:36.226Z,1.38
2018-03-30T06:25:36.152Z,1.52
2018-03-30T06:26:36.104Z,1.53
2018-03-30T06:27:36.238Z,1.60
2018-03-30T06:28:36.253Z,1.62
2018-03-30T06:29:36.070Z,1.60
2018-03-30T06:30:36.031Z,1.92
2018-03-30T06:31:35.994Z,2.11
2018-03-30T06:32:35.955Z,2.31
2018-03-30T06:33:35.989Z,2.65
2018-03-30T06:34:35.910Z,2.87
2018-03-30T06:35:35.885Z,3.19
2018-03-30T06:36:35.895Z,3.37
2018-03-30T06:37:35.909Z,3.58
2018-03-30T06:38:35.848Z,3.62
2018-03-30T06:39:35.799Z,3.78
2018-03-30T06:40:35.835Z,3.87
2018-03-30T06:41:35.742Z,4.14
2018-03-30T06:42:35.737Z,4.30
2018-03-30T06:43:35.765Z,4.60
2018-03-30T06:44:35.738Z,4.82
2018-03-30T06:45:35.783Z,4.90
2018-03-30T06:46:35.712Z,4.92
2018-03-30T06:47:35.886Z,4.89
2018-03-30T06:48:35.576Z,4.77
2018-03-30T06:49:35.639Z,4.75
2018-03-30T06:50:35.582Z,4.56
2018-03-30T06:51:35.520Z,4.31
2018-03-30T06:52:35.525Z,4.20
2018-03-30T06:53:35.500Z,4.17
2018-03-30T06:54:36.221Z,3.95
2018-03-30T06:55:35.480Z,3.92
2018-03-30T06:56:35.434Z,3.84
2018-03-30T06:57:35.405Z,3.76
2018-03-30T06:58:35.342Z,3.78
2018-03-30T06:59:35.321Z,3.86
2018-03-30T07:00:35.326Z,4.08
2018-03-30T07:01:35.333Z,4.32
2018-03-30T07:02:35.299Z,4.66
2018-03-30T07:03:35.273Z,4.71
2018-03-30T07:04:35.266Z,4.97
2018-03-30T07:05:35.184Z,5.26
2018-03-30T07:06:35.197Z,5.54
2018-03-30T07:07:35.135Z,5.79
2018-03-30T07:08:35.128Z,5.68
2018-03-30T07:09:35.130Z,5.61
2018-03-30T07:10:35.092Z,5.48
2018-03-30T07:11:35.056Z,5.44
2018-03-30T07:12:35.035Z,5.54
2018-03-30T07:13:35.030Z,5.36
2018-03-30T07:14:35.041Z,5.28
2018-03-30T07:15:34.987Z,5.18
2018-03-30T07:16:34.972Z,5.05
2018-03-30T07:17:34.982Z,5.14
2018-03-30T07:18:34.920Z,5.33
2018-03-30T07:19:34.879Z,5.73
2018-03-30T07:20:34.852Z,6.17
2018-03-30T07:21:34.835Z,6.69
2018-03-30T07:22:34.866Z,7.13
2018-03-30T07:23:34.846Z,7.39
2018-03-30T07:24:34.804Z,7.75
2018-03-30T07:25:34.752Z,8.15
2018-03-30T07:26:34.725Z,8.60
2018-03-30T07:27:34.692Z,8.97
2018-03-30T07:28:34.690Z,9.19
2018-03-30T07:29:34.677Z,9.48
2018-03-30T07:30:34.653Z,9.77
2018-03-30T07:31:34.618Z,10.04
2018-03-30T07:32:34.614Z,10.15
2018-03-30T07:33:34.570Z,10.22
2018-03-30T07:34:34.583Z,10.23
2018-03-30T07:35:34.769Z,10.04
2018-03-30T07:36:34.521Z,10.57
2018-03-30T07:37:34.478Z,11.37
2018-03-30T07:38:34.477Z,11.84
2018-03-30T07:39:34.494Z,12.25
2018-03-30T07:40:34.506Z,12.65
2018-03-30T07:41:34.405Z,12.98
2018-03-30T07:42:34.394Z,13.46
2018-03-30T07:43:34.404Z,13.83
2018-03-30T07:44:36.311Z,14.05
2018-03-30T07:45:34.414Z,14.18
2018-03-30T07:46:34.345Z,14.10
2018-03-30T07:47:34.285Z,13.70
2018-03-30T07:48:34.309Z,13.19
2018-03-30T07:49:34.241Z,13.12
2018-03-30T07:50:34.273Z,13.67
2018-03-30T07:51:34.212Z,14.41
2018-03-30T07:52:34.807Z,14.91
2018-03-30T07:53:34.192Z,14.68
2018-03-30T07:54:34.176Z,14.36
2018-03-30T07:55:34.159Z,14.12
2018-03-30T07:56:34.159Z,14.29
2018-03-30T07:57:34.088Z,14.84
2018-03-30T07:58:34.083Z,15.51
2018-03-30T07:59:34.130Z,16.29
2018-03-30T08:00:34.045Z,17.08
2018-03-30T08:01:34.102Z,17.67
2018-03-30T08:02:34.009Z,17.89
2018-03-30T08:03:34.093Z,18.20
2018-03-30T08:04:33.987Z,18.43
2018-03-30T08:05:33.943Z,18.15
2018-03-30T08:06:34.028Z,18.03
2018-03-30T08:07:34.388Z,18.03
2018-03-30T08:08:33.934Z,17.71
2018-03-30T08:09:34.120Z,17.33
2018-03-30T08:10:33.866Z,16.91
2018-03-30T08:11:33.845Z,16.56
2018-03-30T08:12:33.892Z,16.02
2018-03-30T08:13:33.822Z,15.79
2018-03-30T08:14:33.849Z,15.49
2018-03-30T08:15:33.795Z,15.35
2018-03-30T08:16:33.774Z,15.22
2018-03-30T08:17:34.693Z,15.15
2018-03-30T08:18:33.744Z,15.25
2018-03-30T08:19:33.820Z,15.47
2018-03-30T08:20:33.704Z,15.52
2018-03-30T08:21:33.712Z,15.83
2018-03-30T08:22:33.706Z,16.58
2018-03-30T08:23:33.674Z,17.94
2018-03-30T08:24:33.640Z,19.16
2018-03-30T08:25:33.635Z,19.91
2018-03-30T08:26:34.282Z,20.51
2018-03-30T08:27:33.592Z,21.42
2018-03-30T08:28:33.610Z,22.41
2018-03-30T08:29:33.579Z,22.98
2018-03-30T08:30:33.541Z,23.59
2018-03-30T08:31:33.549Z,24.32
2018-03-30T08:32:33.529Z,24.86
2018-03-30T08:33:33.499Z,25.28
2018-03-30T08:34:33.485Z,25.41
2018-03-30T08:35:33.493Z,25.59
2018-03-30T08:36:33.467Z,25.75
2018-03-30T08:37:33.427Z,26.02
2018-03-30T08:38:33.435Z,26.21
2018-03-30T08:39:33.403Z,26.47
2018-03-30T08:40:33.401Z,26.96
2018-03-30T08:41:33.391Z,27.26
2018-03-30T08:42:33.372Z,27.40
2018-03-30T08:43:33.360Z,27.75
2018-03-30T08:44:33.366Z,28.02
2018-03-30T08:45:33.357Z,28.30
2018-03-30T08:46:33.343Z,28.51
2018-03-30T08:47:33.311Z,28.37
2018-03-30T08:48:33.298Z,28.41
2018-03-30T08:49:33.305Z,28.38
2018-03-30T08:50:33.342Z,28.62
2018-03-30T08:51:33.272Z,28.79
2018-03-30T08:52:33.290Z,29.05
2018-03-30T08:53:33.263Z,29.22
2018-03-30T08:54:33.250Z,29.53
2018-03-30T08:55:33.248Z,29.79
2018-03-30T08:56:33.249Z,29.94
2018-03-30T08:57:33.207Z,29.72
2018-03-30T08:58:33.223Z,29.54
2018-03-30T08:59:33.255Z,29.53
2018-03-30T09:00:33.224Z,29.45
2018-03-30T09:01:33.197Z,29.39
2018-03-30T09:02:33.202Z,29.56
2018-03-30T09:03:33.188Z,29.75
2018-03-30T09:04:33.177Z,30.15
2018-03-30T09:05:33.151Z,30.27
2018-03-30T09:06:33.139Z,30.34
2018-03-30T09:07:33.139Z,30.18
2018-03-30T09:08:33.130Z,30.00
2018-03-30T09:09:33.123Z,29.88
2018-03-30T09:10:33.130Z,29.75
2018-03-30T09:11:33.098Z,29.38
2018-03-30T09:12:33.097Z,29.13
2018-03-30T09:13:33.082Z,29.14
2018-03-30T09:14:33.071Z,29.27
2018-03-30T09:15:33.093Z,29.42
2018-03-30T09:16:33.089Z,29.61
2018-03-30T09:17:33.076Z,30.00
2018-03-30T09:18:33.071Z,30.18
2018-03-30T09:19:33.137Z,30.32
2018-03-30T09:20:33.052Z,30.55
2018-03-30T09:21:33.082Z,30.72
2018-03-30T09:22:33.024Z,30.70
2018-03-30T09:23:33.032Z,30.66
2018-03-30T09:24:33.025Z,31.14
2018-03-30T09:25:33.017Z,31.47
2018-03-30T09:26:33.002Z,31.77
2018-03-30T09:27:32.990Z,31.80
2018-03-30T09:28:32.975Z,31.84
2018-03-30T09:29:33.019Z,31.96
2018-03-30T09:30:33.010Z,31.84
2018-03-30T09:31:32.982Z,31.87
2018-03-30T09:32:32.991Z,31.80
2018-03-30T09:33:32.980Z,31.96
2018-03-30T09:34:32.954Z,32.22
2018-03-30T09:35:32.973Z,32.37
2018-03-30T09:36:32.955Z,32.46
2018-03-30T09:37:32.943Z,32.60
2018-03-30T09:38:32.982Z,32.86
2018-03-30T09:39:32.976Z,33.09
2018-03-30T09:40:32.896Z,33.28
2018-03-30T09:41:32.909Z,33.14
2018-03-30T09:42:32.891Z,32.93
2018-03-30T09:43:32.901Z,33.11
2018-03-30T09:44:32.890Z,33.40
2018-03-30T09:45:32.882Z,33.49
2018-03-30T09:46:32.898Z,33.69
2018-03-30T09:47:32.870Z,33.86
2018-03-30T09:48:32.873Z,33.96
2018-03-30T09:49:32.880Z,34.08
2018-03-30T09:50:32.870Z,34.27
2018-03-30T09:51:32.859Z,34.33
2018-03-30T09:52:32.864Z,34.27
2018-03-30T09:53:32.887Z,34.02
2018-03-30T09:54:32.885Z,34.14
2018-03-30T09:55:32.841Z,34.29
2018-03-30T09:56:32.849Z,34.43
2018-03-30T09:57:32.834Z,34.48
2018-03-30T09:58:32.833Z,34.70
2018-03-30T09:59:32.811Z,34.67
2018-03-30T10:00:32.828Z,34.78
2018-03-30T10:01:32.811Z,34.83
2018-03-30T10:02:32.833Z,34.71
2018-03-30T10:03:32.851Z,34.24
2018-03-30T10:04:32.817Z,33.87
2018-03-30T10:05:32.807Z,33.53
2018-03-30T10:06:32.809Z,33.14
2018-03-30T10:07:32.802Z,33.09
2018-03-30T10:08:32.787Z,32.68
2018-03-30T10:09:32.784Z,32.15
2018-03-30T10:10:32.782Z,31.62
2018-03-30T10:11:32.788Z,31.49
2018-03-30T10:12:32.800Z,31.15
2018-03-30T10:13:32.777Z,30.87
2018-03-30T10:14:32.779Z,30.80
2018-03-30T10:15:32.788Z,30.96
2018-03-30T10:16:32.755Z,30.90
2018-03-30T10:17:32.749Z,31.12
2018-03-30T10:18:32.795Z,30.94
2018-03-30T10:19:33.302Z,30.72
2018-03-30T10:20:32.770Z,30.81
2018-03-30T10:21:32.766Z,31.07
2018-03-30T10:22:32.716Z,31.36
2018-03-30T10:23:32.723Z,31.40
2018-03-30T10:24:32.772Z,31.92
2018-03-30T10:25:32.748Z,32.45
2018-03-30T10:26:32.712Z,32.92
2018-03-30T10:27:32.730Z,33.37
2018-03-30T10:28:32.774Z,33.49
2018-03-30T10:29:32.688Z,32.90
2018-03-30T10:30:32.731Z,32.33
2018-03-30T10:31:32.697Z,32.43
2018-03-30T10:32:32.714Z,32.38
2018-03-30T10:33:32.685Z,32.21
2018-03-30T10:34:32.700Z,32.27
2018-03-30T10:35:32.682Z,32.65
2018-03-30T10:36:32.705Z,33.28
2018-03-30T10:37:32.676Z,33.11
2018-03-30T10:38:32.658Z,32.71
2018-03-30T10:39:32.660Z,32.29
2018-03-30T10:40:32.680Z,32.22
2018-03-30T10:41:32.713Z,32.11
2018-03-30T10:42:32.671Z,32.21
2018-03-30T10:43:32.745Z,32.29
2018-03-30T10:44:32.655Z,32.37
2018-03-30T10:45:32.674Z,32.59
2018-03-30T10:46:32.640Z,32.78
2018-03-30T10:47:32.669Z,32.82
2018-03-30T10:48:32.654Z,32.68
2018-03-30T10:49:32.637Z,32.68
2018-03-30T10:50:32.628Z,32.63
2018-03-30T10:51:32.658Z,32.26
2018-03-30T10:52:32.660Z,31.61
2018-03-30T10:53:32.657Z,30.94
2018-03-30T10:54:32.667Z,30.83
2018-03-30T10:55:32.624Z,30.80
2018-03-30T10:56:32.622Z,30.77
2018-03-30T10:57:32.610Z,30.83
2018-03-30T10:58:32.636Z,30.84
2018-03-30T10:59:32.599Z,31.20
2018-03-30T11:00:32.602Z,31.28
2018-03-30T11:01:32.593Z,31.12
2018-03-30T11:02:32.585Z,30.97
2018-03-30T11:03:32.586Z,30.91
2018-03-30T11:04:32.566Z,30.80
2018-03-30T11:05:32.619Z,30.88
2018-03-30T11:06:32.628Z,30.88
2018-03-30T11:07:32.582Z,31.06
2018-03-30T11:08:32.558Z,31.02
2018-03-30T11:09:32.580Z,31.05
2018-03-30T11:10:32.552Z,31.17
2018-03-30T11:11:33.335Z,31.14
2018-03-30T11:12:32.549Z,31.29
2018-03-30T11:13:32.536Z,31.70
2018-03-30T11:14:32.524Z,31.99
2018-03-30T11:15:32.513Z,32.11
2018-03-30T11:16:33.345Z,32.12
2018-03-30T11:17:32.493Z,32.30
2018-03-30T11:18:32.500Z,32.52
2018-03-30T11:19:32.497Z,32.82
2018-03-30T11:20:32.501Z,33.02
2018-03-30T11:21:32.488Z,33.27
2018-03-30T11:22:32.482Z,33.53
2018-03-30T11:23:32.527Z,33.59
2018-03-30T11:24:32.474Z,33.55
2018-03-30T11:25:32.466Z,33.80
2018-03-30T11:26:32.453Z,33.95
2018-03-30T11:27:32.445Z,33.83
2018-03-30T11:28:32.450Z,33.92
2018-03-30T11:29:32.491Z,33.95
2018-03-30T11:30:32.444Z,34.18
2018-03-30T11:31:32.427Z,34.27
2018-03-30T11:32:32.422Z,34.30
2018-03-30T11:33:32.446Z,34.57
2018-03-30T11:34:32.429Z,34.74
2018-03-30T11:35:32.421Z,34.67
2018-03-30T11:36:32.437Z,34.60
2018-03-30T11:37:32.448Z,34.64
2018-03-30T11:38:32.425Z,34.74
2018-03-30T11:39:32.426Z,34.80
2018-03-30T11:40:32.488Z,33.87
2018-03-30T11:41:32.422Z,32.70
2018-03-30T11:42:32.402Z,32.65
2018-03-30T11:43:32.418Z,32.68
2018-03-30T11:44:32.410Z,32.27
2018-03-30T11:45:32.420Z,31.99
2018-03-30T11:46:32.385Z,32.26
2018-03-30T11:47:32.388Z,33.02
2018-03-30T11:48:32.433Z,33.73
2018-03-30T11:49:32.408Z,33.58
2018-03-30T11:50:32.495Z,33.22
2018-03-30T11:51:32.385Z,33.04
2018-03-30T11:52:32.387Z,32.45
2018-03-30T11:53:32.372Z,31.64
2018-03-30T11:54:32.374Z,30.48
2018-03-30T11:55:32.374Z,29.72
2018-03-30T11:56:32.368Z,29.76
2018-03-30T11:57:32.358Z,29.81
2018-03-30T11:58:32.361Z,29.14
2018-03-30T11:59:32.390Z,28.47
2018-03-30T12:00:32.356Z,27.67
2018-03-30T12:01:32.361Z,27.30
2018-03-30T12:02:32.330Z,27.17
2018-03-30T12:03:32.340Z,26.53
2018-03-30T12:04:32.321Z,25.75
2018-03-30T12:05:32.353Z,24.99
2018-03-30T12:06:32.307Z,24.40
2018-03-30T12:07:32.329Z,24.29
2018-03-30T12:08:32.317Z,24.61
2018-03-30T12:09:32.328Z,24.78
2018-03-30T12:10:32.281Z,24.81
2018-03-30T12:11:32.294Z,24.80
2018-03-30T12:12:32.296Z,24.47
2018-03-30T12:13:32.290Z,24.26
2018-03-30T12:14:32.255Z,23.66
2018-03-30T12:15:32.254Z,23.36
2018-03-30T12:16:32.222Z,23.00
2018-03-30T12:17:32.247Z,22.78
2018-03-30T12:18:32.232Z,22.68
2018-03-30T12:19:32.212Z,22.50
2018-03-30T12:20:32.201Z,22.69
2018-03-30T12:21:32.220Z,22.73
2018-03-30T12:22:32.192Z,22.68
2018-03-30T12:23:32.155Z,22.69
2018-03-30T12:24:32.163Z,22.54
2018-03-30T12:25:32.139Z,22.28
2018-03-30T12:26:32.148Z,21.85
2018-03-30T12:27:32.170Z,21.42
2018-03-30T12:28:32.140Z,21.09
2018-03-30T12:29:32.119Z,20.95
2018-03-30T12:30:32.104Z,20.66
2018-03-30T12:31:32.128Z,20.72
2018-03-30T12:32:32.081Z,21.03
2018-03-30T12:33:32.078Z,21.48
2018-03-30T12:34:32.084Z,22.11
2018-03-30T12:35:32.047Z,22.57
2018-03-30T12:36:32.009Z,22.78
2018-03-30T12:37:32.020Z,22.98
2018-03-30T12:38:32.024Z,22.94
2018-03-30T12:39:32.024Z,22.91
2018-03-30T12:40:31.987Z,22.99
2018-03-30T12:41:31.979Z,23.00
2018-03-30T12:42:31.980Z,22.83
2018-03-30T12:43:34.859Z,22.91
2018-03-30T12:44:31.941Z,22.90
2018-03-30T12:45:31.935Z,22.76
2018-03-30T12:46:31.939Z,23.09
2018-03-30T12:47:31.918Z,23.17
2018-03-30T12:48:31.900Z,23.15
2018-03-30T12:49:31.925Z,23.31
2018-03-30T12:50:31.864Z,23.55
2018-03-30T12:51:31.907Z,23.62
2018-03-30T12:52:31.826Z,23.99
2018-03-30T12:53:31.844Z,24.05
2018-03-30T12:54:31.836Z,23.91
2018-03-30T12:55:32.361Z,23.73